42NY weather

Public forecast

Using degrees Fahrenheit for public forecast. Weather courtesy of forecast.io.

Closest aviation weather report (METAR) to Walter's Field

Closest report is Cortland County Chase Field, 8.4 nm (15.5 km) WSW. Retrieved 2020/08/11 00:15 UTC (0 seconds ago):

KN03 110015Z AUTO 00000KT 10SM CLR 23/20 A2998 RMK AO2

Closest aviation forecast (TAF) to Walter's Field

Closest forecast is Ithaca Tompkins Regional Airport, 20.7 nm (38.4 km) WSW. Retrieved 2020-08-11 00:51 UTC (0 seconds ago):

TAF KITH 102347Z 1100/1124 15004KT P6SM FEW080 BKN200 FM111400 19010KT P6SM FEW070 SCT200 FM111900 21009KT 6SM -SHRA BR FEW030 SCT040 BKN070